Grand Benelux — IBTB — position and weather

sailwx.info

Track history (hours):
 
Tides and Currents Weather Stations Pressure Air Temp Water Temp Dewpoint Dewpoint Depression Visibility Wind Speed Wind Dir Waves Ship Positions

Grand Benelux

Last reported at 2017-Nov-24 18:06 UTC. Time now 2017-Nov-25 09:48 UTC.
Position N 40°36' E 013°52'.

Length 177 m; draft 8.3 m.

Type: Cargo ship. MMSI: 247039400.

Date/timePositionNaut miles runAvg speedWind from/ knotsBaromVisibWave heightAir tempDewpointWater temp
2017-Nov-24 18:06N 40°36' E 013°52'5416.1
2017-Nov-24 14:45N 39°56' E 014°39'516.4
2017-Nov-24 14:28N 39°51' E 014°42'2616.5
2017-Nov-24 12:53N 39°28' E 014°57'616.3
2017-Nov-24 12:30N 39°23' E 015°01'3716.1
2017-Nov-24 10:13N 38°50' E 015°22'415.9
2017-Nov-24 09:57N 38°46' E 015°24'716.1
2017-Nov-24 09:30N 38°39' E 015°28'816.0
2017-Nov-24 09:00N 38°32' E 015°32'815.9
2017-Nov-24 08:30N 38°26' E 015°38'816.1
2017-Nov-24 08:00N 38°19' E 015°43'815.3
2017-Nov-24 07:30N 38°13' E 015°37'817.0
2017-Nov-24 07:00N 38°04' E 015°36'916.7
2017-Nov-24 06:30N 37°56' E 015°36'816.1
2017-Nov-24 06:00N 37°52' E 015°45'816.5
2017-Nov-24 05:30N 37°49' E 015°55'35016.5
2017-Nov-23 08:19N 36°24' E 023°01'616.6
2017-Nov-23 07:57N 36°23' E 023°08'715.0
2017-Nov-23 07:30N 36°24' E 023°17'1116.9
2017-Nov-23 06:53N 36°32' E 023°26'717.3
2017-Nov-23 06:29N 36°38' E 023°31'917.9
2017-Nov-23 05:57N 36°45' E 023°38'817.8
2017-Nov-23 05:31N 36°52' E 023°44'917.4
2017-Nov-23 05:01N 36°58' E 023°50'917.2
2017-Nov-23 04:30N 37°05' E 023°57'4317.5
2017-Nov-23 02:05N 37°39' E 024°29'217.1
2017-Nov-23 01:59N 37°41' E 024°30'  
2017-Nov-16 22:17N 37°47' E 016°08'515.9
2017-Nov-16 21:58N 37°48' E 016°02'715.9
2017-Nov-16 21:30N 37°50' E 015°53'815.5
2017-Nov-16 21:01N 37°52' E 015°44'815.5
2017-Nov-16 20:31N 37°57' E 015°36'816.4
2017-Nov-16 20:00N 38°05' E 015°34'917.6
2017-Nov-16 19:31N 38°14' E 015°36'815.5
2017-Nov-16 19:01N 38°21' E 015°40'917.5
2017-Nov-16 18:30N 38°29' E 015°35'815.8
2017-Nov-16 18:00N 38°37' E 015°31'815.9
2017-Nov-16 17:31N 38°44' E 015°27'816.1
2017-Nov-16 17:00N 38°51' E 015°24'815.8
2017-Nov-16 16:29N 38°59' E 015°21'815.6
2017-Nov-16 16:00N 39°06' E 015°17'1515.7
2017-Nov-16 15:01N 39°20' E 015°09'215.6
2017-Nov-16 14:55N 39°22' E 015°08'2715.6
2017-Nov-16 13:11N 39°47' E 014°55'615.4
2017-Nov-16 12:45N 39°53' E 014°52'415.4
2017-Nov-16 12:30N 39°57' E 014°51'50 3.4
2017-Nov-15 21:39N 40°32' E 014°03'216.5
2017-Nov-15 21:30N 40°33' E 014°01'816.8
2017-Nov-15 21:01N 40°37' E 013°51'916.8
2017-Nov-15 20:28N 40°42' E 013°41'20616.3
2017-Nov-15 07:51N 43°04' E 010°21'618.3
2017-Nov-15 07:31N 43°10' E 010°18'918.8
2017-Nov-15 07:01N 43°19' E 010°15'918.4
2017-Nov-15 06:30N 43°28' E 010°12'611.1
2017-Nov-15 06:00N 43°32' E 010°17'1 2.7
2017-Nov-15 05:31N 43°34' E 010°18'0 0.0
2017-Nov-15 05:01N 43°34' E 010°18'0 0.0
2017-Nov-15 04:30N 43°34' E 010°18'0 0.0
2017-Nov-15 04:00N 43°34' E 010°18'0 0.0
2017-Nov-15 03:27N 43°34' E 010°18'0 0.0
2017-Nov-15 03:00N 43°34' E 010°18'0 0.0
2017-Nov-15 02:30N 43°34' E 010°18'0 0.0
2017-Nov-15 02:00N 43°34' E 010°18'0 0.0
2017-Nov-15 01:30N 43°34' E 010°18'0 0.0
2017-Nov-15 01:00N 43°34' E 010°18'0 0.0
2017-Nov-15 00:30N 43°34' E 010°18'0 0.0
2017-Nov-14 23:57N 43°34' E 010°18'0 0.0
2017-Nov-14 23:31N 43°34' E 010°18'0 0.0
2017-Nov-14 23:00N 43°34' E 010°18'0 0.0
2017-Nov-14 22:25N 43°34' E 010°18'0 0.0
2017-Nov-14 21:58N 43°34' E 010°18'0 0.0
2017-Nov-14 21:30N 43°34' E 010°18'1 2.0
2017-Nov-14 21:00N 43°33' E 010°17'4 7.1
2017-Nov-14 20:31N 43°30' E 010°14'510.3
2017-Nov-14 20:01N 43°27' E 010°09'714.9
2017-Nov-14 19:31N 43°22' E 010°01'714.5
2017-Nov-14 19:01N 43°18' E 009°52'815.2
2017-Nov-14 18:31N 43°17' E 009°42'  
Track history (hours):
 
Tides and Currents Weather Stations Pressure Air Temp Water Temp Dewpoint Dewpoint Depression Visibility Wind Speed Wind Dir Waves Ship Positions

Grand Benelux

Last reported at 2017-Nov-24 18:06 UTC. Time now 2017-Nov-25 09:48 UTC.
Position N 40°36' E 013°52'.

Length 177 m; draft 8.3 m.

Type: Cargo ship. MMSI: 247039400.

Date/timePositionNaut miles runAvg speedWind from/ knotsBaromVisibWave heightAir tempDewpointWater temp
2017-Nov-24 18:06N 40°36' E 013°52'5416.1
2017-Nov-24 14:45N 39°56' E 014°39'516.4
2017-Nov-24 14:28N 39°51' E 014°42'2616.5
2017-Nov-24 12:53N 39°28' E 014°57'616.3
2017-Nov-24 12:30N 39°23' E 015°01'3716.1
2017-Nov-24 10:13N 38°50' E 015°22'415.9
2017-Nov-24 09:57N 38°46' E 015°24'716.1
2017-Nov-24 09:30N 38°39' E 015°28'816.0
2017-Nov-24 09:00N 38°32' E 015°32'815.9
2017-Nov-24 08:30N 38°26' E 015°38'816.1
2017-Nov-24 08:00N 38°19' E 015°43'815.3
2017-Nov-24 07:30N 38°13' E 015°37'817.0
2017-Nov-24 07:00N 38°04' E 015°36'916.7
2017-Nov-24 06:30N 37°56' E 015°36'816.1
2017-Nov-24 06:00N 37°52' E 015°45'816.5
2017-Nov-24 05:30N 37°49' E 015°55'35016.5
2017-Nov-23 08:19N 36°24' E 023°01'616.6
2017-Nov-23 07:57N 36°23' E 023°08'715.0
2017-Nov-23 07:30N 36°24' E 023°17'1116.9
2017-Nov-23 06:53N 36°32' E 023°26'717.3
2017-Nov-23 06:29N 36°38' E 023°31'917.9
2017-Nov-23 05:57N 36°45' E 023°38'817.8
2017-Nov-23 05:31N 36°52' E 023°44'917.4
2017-Nov-23 05:01N 36°58' E 023°50'917.2
2017-Nov-23 04:30N 37°05' E 023°57'4317.5
2017-Nov-23 02:05N 37°39' E 024°29'217.1
2017-Nov-23 01:59N 37°41' E 024°30'  
2017-Nov-16 22:17N 37°47' E 016°08'515.9
2017-Nov-16 21:58N 37°48' E 016°02'715.9
2017-Nov-16 21:30N 37°50' E 015°53'815.5
2017-Nov-16 21:01N 37°52' E 015°44'815.5
2017-Nov-16 20:31N 37°57' E 015°36'816.4
2017-Nov-16 20:00N 38°05' E 015°34'917.6
2017-Nov-16 19:31N 38°14' E 015°36'815.5
2017-Nov-16 19:01N 38°21' E 015°40'917.5
2017-Nov-16 18:30N 38°29' E 015°35'815.8
2017-Nov-16 18:00N 38°37' E 015°31'815.9
2017-Nov-16 17:31N 38°44' E 015°27'816.1
2017-Nov-16 17:00N 38°51' E 015°24'815.8
2017-Nov-16 16:29N 38°59' E 015°21'815.6
2017-Nov-16 16:00N 39°06' E 015°17'1515.7
2017-Nov-16 15:01N 39°20' E 015°09'215.6
2017-Nov-16 14:55N 39°22' E 015°08'2715.6
2017-Nov-16 13:11N 39°47' E 014°55'615.4
2017-Nov-16 12:45N 39°53' E 014°52'415.4
2017-Nov-16 12:30N 39°57' E 014°51'50 3.4
2017-Nov-15 21:39N 40°32' E 014°03'216.5
2017-Nov-15 21:30N 40°33' E 014°01'816.8
2017-Nov-15 21:01N 40°37' E 013°51'916.8
2017-Nov-15 20:28N 40°42' E 013°41'20616.3
2017-Nov-15 07:51N 43°04' E 010°21'618.3
2017-Nov-15 07:31N 43°10' E 010°18'918.8
2017-Nov-15 07:01N 43°19' E 010°15'918.4
2017-Nov-15 06:30N 43°28' E 010°12'611.1
2017-Nov-15 06:00N 43°32' E 010°17'1 2.7
2017-Nov-15 05:31N 43°34' E 010°18'0 0.0
2017-Nov-15 05:01N 43°34' E 010°18'0 0.0
2017-Nov-15 04:30N 43°34' E 010°18'0 0.0
2017-Nov-15 04:00N 43°34' E 010°18'0 0.0
2017-Nov-15 03:27N 43°34' E 010°18'0 0.0
2017-Nov-15 03:00N 43°34' E 010°18'0 0.0
2017-Nov-15 02:30N 43°34' E 010°18'0 0.0
2017-Nov-15 02:00N 43°34' E 010°18'0 0.0
2017-Nov-15 01:30N 43°34' E 010°18'0 0.0
2017-Nov-15 01:00N 43°34' E 010°18'0 0.0
2017-Nov-15 00:30N 43°34' E 010°18'0 0.0
2017-Nov-14 23:57N 43°34' E 010°18'0 0.0
2017-Nov-14 23:31N 43°34' E 010°18'0 0.0
2017-Nov-14 23:00N 43°34' E 010°18'0 0.0
2017-Nov-14 22:25N 43°34' E 010°18'0 0.0
2017-Nov-14 21:58N 43°34' E 010°18'0 0.0
2017-Nov-14 21:30N 43°34' E 010°18'1 2.0
2017-Nov-14 21:00N 43°33' E 010°17'4 7.1
2017-Nov-14 20:31N 43°30' E 010°14'510.3
2017-Nov-14 20:01N 43°27' E 010°09'714.9
2017-Nov-14 19:31N 43°22' E 010°01'714.5
2017-Nov-14 19:01N 43°18' E 009°52'815.2
2017-Nov-14 18:31N 43°17' E 009°42'  

Dump ship's entire track history